Tuesday, September 23, 2014, 2:18 AM EDT

KDYL, Doylestown Airport

Location: Doylestown, PA, United States Lat: 40.333
Local Time: 2:18 AM EDT ( 6:18 GMT) Lon: -75.117
Time Zone: US/Eastern Elev: 393 ft

Show me the last for .
Show Decoded

2014-09-23 01:54 METAR KDYL 230554Z AUTO 00000KT 10SM CLR 08/04 A3022 RMK AO2 SLP234 T00830044
                 10150 20083 51013 =
2014-09-23 00:54 METAR KDYL 230454Z AUTO 32003KT 10SM CLR 10/04 A3021 RMK AO2 SLP230 T01000039
                 402170100 =
2014-09-22 23:54 METAR KDYL 230354Z AUTO 34006KT 10SM CLR 12/04 A3020 RMK AO2 SLP227 T01170039 =
2014-09-22 22:54 METAR KDYL 230254Z AUTO 34005KT 10SM CLR 12/05 A3018 RMK AO2 SLP221 T01170050
                 51034 =
2014-09-22 21:54 METAR KDYL 230154Z AUTO 35005KT 10SM FEW048 13/06 A3016 RMK AO2 SLP213 T01280056
                 =
2014-09-22 20:54 METAR KDYL 230054Z AUTO VRB03KT 10SM FEW050 14/06 A3012 RMK AO2 SLP199 T01390061
                 =
2014-09-22 19:54 METAR KDYL 222354Z AUTO 32003KT 10SM CLR 15/06 A3008 RMK AO2 SLP186 T01500056
                 10217 20150 53031 =
2014-09-22 18:54 METAR KDYL 222254Z AUTO VRB06KT 10SM CLR 16/06 A3005 RMK AO2 SLP174 T01610056 =
2014-09-22 17:54 METAR KDYL 222154Z AUTO 33012G18KT 10SM CLR 18/06 A3002 RMK AO2 SLP165 T01780056
                 =
2014-09-22 16:54 METAR KDYL 222054Z AUTO 31011G19KT 10SM CLR 19/06 A2999 RMK AO2 WSHFT 1947
                 SLP152 T01940056 53010 =
2014-09-22 16:07 METAR KDYL 222007Z AUTO 32010G21KT 10SM CLR 20/07 A2998 RMK AO2 WSHFT 1947
                 T02000067 =
2014-09-22 15:54 METAR KDYL 221954Z AUTO 32010G21KT 10SM SCT050 20/07 A2997 RMK AO2 SLP147
                 T02000072 =
2014-09-22 14:54 METAR KDYL 221854Z AUTO 27011G17KT 10SM OVC046 20/08 A2997 RMK AO2 SLP147
                 T02000083 =
2014-09-22 13:54 METAR KDYL 221754Z AUTO 33009G20KT 310V010 10SM OVC045 20/08 A2996 RMK AO2
                 SLP142 T02000083 10211 20156 51010 =
2014-09-22 12:54 METAR KDYL 221654Z AUTO 32008G20KT 10SM BKN043 19/09 A2995 RMK AO2 SLP139
                 T01940089 =
2014-09-22 11:54 METAR KDYL 221554Z AUTO VRB06KT 10SM OVC041 19/09 A2994 RMK AO2 SLP136 T01890089
                 =
2014-09-22 10:54 METAR KDYL 221454Z AUTO 30010G20KT 10SM BKN039 18/09 A2993 RMK AO2 SLP131
                 T01830094 51026 =
2014-09-22 09:54 METAR KDYL 221354Z AUTO 31011G19KT 10SM CLR 18/10 A2991 RMK AO2 SLP124 T01830100
                 =
2014-09-22 08:54 METAR KDYL 221254Z AUTO 28010G19KT 10SM CLR 17/10 A2988 RMK AO2 SLP116 T01720100
                 =
2014-09-22 06:54 METAR KDYL 221054Z AUTO 28007KT 10SM CLR 15/10 A2981 RMK AO2 SLP092 T01500100 =
2014-09-22 05:54 METAR KDYL 220954Z AUTO 29006KT 10SM CLR 16/11 A2978 RMK AO2 SLP080 T01560106 =
2014-09-22 04:54 METAR KDYL 220854Z AUTO 27007KT 210V300 10SM CLR 17/12 A2975 RMK AO2 SLP071
                 T01670117 53016 =
2014-09-22 03:54 METAR KDYL 220754Z AUTO 28004KT 10SM CLR 17/12 A2973 RMK AO2 SLP064 T01670122 =
2014-09-22 02:54 METAR KDYL 220654Z AUTO 30005KT 10SM FEW110 18/13 A2972 RMK AO2 SLP058 T01830128
                 =

Support USWX by starting your Amazon purchase here.